Time;durP1;ratioP1;P1;durP2;ratioP2;P2;SDS_P1;SDS_P2;PMS_P1;PMS_P2;Temp;Humidity;BMP_temperature;BMP_pressure;BME280_temperature;BME280_humidity;BME280_pressure;Samples;Min_cycle;Max_cycle;Signal;HPM_P1;HPM_P2
2022/12/23 00:00:10;;;;;;;9.48;3.88;;;8.30;99.90;;;;;;5054967;28;20082;-67
2022/12/23 00:02:37;;;;;;;9.48;3.35;;;8.30;99.90;;;;;;5054311;28;20485;-67
2022/12/23 00:05:04;;;;;;;8.27;2.95;;;8.20;99.90;;;;;;5054975;28;20029;-66
2022/12/23 00:07:30;;;;;;;9.65;3.47;;;8.20;99.90;;;;;;5054462;28;20469;-67
2022/12/23 00:09:55;;;;;;;8.63;3.40;;;8.20;99.90;;;;;;5054014;28;20104;-67
2022/12/23 00:15:06;;;;;;;12.85;3.85;;;8.20;99.90;;;;;;5054548;28;20032;-67
2022/12/23 00:17:33;;;;;;;8.00;3.45;;;8.10;99.90;;;;;;5054108;28;20036;-67
2022/12/23 00:19:59;;;;;;;9.55;3.88;;;8.10;99.90;;;;;;5054683;28;20433;-67
2022/12/23 00:25:10;;;;;;;9.80;3.53;;;8.00;99.90;;;;;;5054589;28;20114;-67
2022/12/23 00:27:36;;;;;;;8.55;3.88;;;8.00;99.90;;;;;;5054087;28;20036;-67
2022/12/23 00:30:03;;;;;;;9.50;4.13;;;8.00;99.90;;;;;;5054473;28;20032;-67
2022/12/23 00:32:28;;;;;;;9.70;4.13;;;7.90;99.90;;;;;;5053995;28;20048;-67
2022/12/23 00:34:54;;;;;;;9.52;3.67;;;7.80;99.90;;;;;;5053988;28;20029;-67
2022/12/23 00:37:19;;;;;;;9.35;4.57;;;7.80;99.90;;;;;;5051927;28;20057;-67
2022/12/23 00:45:16;;;;;;;9.85;4.57;;;7.70;99.90;;;;;;5053933;28;20059;-67
2022/12/23 00:50:28;;;;;;;14.70;6.40;;;7.60;99.90;;;;;;5053681;28;20031;-67
2022/12/23 00:52:53;;;;;;;10.45;4.90;;;7.50;99.90;;;;;;5054099;28;20029;-66
2022/12/23 00:55:19;;;;;;;9.23;4.65;;;7.50;99.90;;;;;;5053972;28;20032;-67
2022/12/23 00:57:45;;;;;;;10.15;4.45;;;7.40;99.90;;;;;;5052289;28;20056;-67
2022/12/23 01:00:11;;;;;;;10.60;4.78;;;7.40;99.90;;;;;;5053598;28;20108;-67
2022/12/23 01:05:36;;;;;;;9.95;5.10;;;7.30;99.90;;;;;;5053479;28;20509;-67
2022/12/23 01:08:07;;;;;;;9.93;4.40;;;7.30;99.90;;;;;;5053397;28;20039;-66
2022/12/23 01:10:38;;;;;;;11.73;4.33;;;7.30;99.90;;;;;;5053458;28;20047;-67
2022/12/23 01:13:03;;;;;;;7.43;4.22;;;7.20;99.90;;;;;;5053350;28;20023;-67
2022/12/23 01:15:29;;;;;;;6.10;4.18;;;7.20;99.90;;;;;;5053239;28;20376;-66
2022/12/23 01:17:55;;;;;;;8.50;4.13;;;7.10;99.90;;;;;;5053426;28;20033;-66
2022/12/23 01:20:21;;;;;;;9.43;4.20;;;7.10;99.90;;;;;;5053813;28;20035;-66
2022/12/23 01:22:47;;;;;;;6.30;4.22;;;7.00;99.90;;;;;;5052317;28;20381;-67
2022/12/23 01:25:13;;;;;;;11.30;4.72;;;7.00;99.90;;;;;;5053823;28;20029;-67
2022/12/23 01:27:38;;;;;;;8.18;3.75;;;7.00;99.90;;;;;;5052982;28;20033;-67
2022/12/23 01:30:05;;;;;;;7.72;4.80;;;7.00;99.90;;;;;;5053076;28;20108;-67
2022/12/23 01:32:31;;;;;;;7.70;4.20;;;6.90;99.90;;;;;;5052869;28;20420;-67
2022/12/23 01:34:56;;;;;;;8.02;4.43;;;6.90;99.90;;;;;;5053478;28;20036;-67
2022/12/23 01:37:22;;;;;;;6.80;3.85;;;6.90;99.90;;;;;;5052757;28;20103;-66
2022/12/23 01:39:48;;;;;;;10.50;5.05;;;6.90;99.90;;;;;;5053254;28;20086;-67
2022/12/23 01:45:16;;;;;;;6.07;4.32;;;6.90;99.90;;;;;;5053213;28;20075;-66
2022/12/23 01:47:55;;;;;;;9.52;4.60;;;6.80;99.90;;;;;;5052632;28;20026;-66
2022/12/23 01:50:45;;;;;;;8.95;4.68;;;6.80;99.90;;;;;;5053001;28;20029;-65
2022/12/23 01:53:18;;;;;;;8.18;4.22;;;6.80;99.90;;;;;;5052965;28;20057;-67
2022/12/23 01:56:27;;;;;;;8.13;4.30;;;6.70;99.90;;;;;;5052636;28;20934;-67
2022/12/23 01:58:55;;;;;;;8.63;4.38;;;6.70;99.90;;;;;;5049317;28;20048;-66
2022/12/23 02:04:08;;;;;;;9.27;4.40;;;6.60;99.90;;;;;;5052599;28;20032;-67
2022/12/23 02:09:27;;;;;;;8.32;4.68;;;6.60;99.90;;;;;;5052625;28;20039;-67
2022/12/23 02:12:15;;;;;;;7.68;4.93;;;6.60;99.90;;;;;;5052655;28;20421;-67
2022/12/23 02:18:00;;;;;;;8.25;4.45;;;6.60;99.90;;;;;;5050227;28;20048;-69
2022/12/23 02:20:43;;;;;;;8.43;4.75;;;6.60;99.90;;;;;;5052818;28;20032;-66
2022/12/23 02:23:18;;;;;;;9.75;4.65;;;6.60;99.90;;;;;;5052540;28;20032;-65
2022/12/23 02:25:55;;;;;;;10.02;5.07;;;6.60;99.90;;;;;;5052080;28;20131;-67
2022/12/23 02:28:48;;;;;;;11.02;5.40;;;6.60;99.90;;;;;;5052227;28;20056;-66
2022/12/23 02:31:37;;;;;;;9.55;4.82;;;6.60;99.90;;;;;;5052056;28;20473;-66
2022/12/23 02:34:17;;;;;;;9.80;5.32;;;6.60;99.90;;;;;;5052247;28;20465;-67
2022/12/23 02:36:48;;;;;;;8.38;5.00;;;6.60;99.90;;;;;;5051624;28;20028;-67
2022/12/23 02:39:27;;;;;;;9.57;5.38;;;6.60;99.90;;;;;;5051782;28;20033;-67
2022/12/23 02:42:01;;;;;;;9.88;5.50;;;6.60;99.90;;;;;;5052702;28;20106;-67
2022/12/23 02:44:30;;;;;;;12.25;5.40;;;6.60;99.90;;;;;;5051970;28;20115;-66
2022/12/23 02:47:24;;;;;;;11.50;5.78;;;6.60;99.90;;;;;;5052182;28;20485;-67
2022/12/23 02:49:53;;;;;;;10.73;5.72;;;6.60;99.90;;;;;;5050304;28;20048;-67
2022/12/23 02:52:23;;;;;;;10.55;5.55;;;6.60;99.90;;;;;;5052519;28;20029;-66
2022/12/23 02:55:07;;;;;;;10.57;5.65;;;6.60;99.90;;;;;;5051432;28;20116;-66
2022/12/23 02:57:36;;;;;;;10.05;5.05;;;6.60;99.90;;;;;;5051697;28;20466;-67
2022/12/23 03:00:03;;;;;;;8.15;5.38;;;6.60;99.90;;;;;;5051651;28;20025;-67
2022/12/23 03:02:34;;;;;;;9.73;6.20;;;6.60;99.90;;;;;;5051266;28;20028;-70
2022/12/23 03:05:00;;;;;;;;;;;6.60;99.90;;;;;;5052407;28;20028;-67
2022/12/23 03:07:40;;;;;;;8.88;6.13;;;6.60;99.90;;;;;;5051645;28;19905;-67
2022/12/23 03:10:39;;;;;;;9.57;5.60;;;6.60;99.90;;;;;;5051729;28;20055;-67
2022/12/23 03:13:16;;;;;;;11.55;6.60;;;6.60;99.90;;;;;;5052153;28;20086;-66
2022/12/23 03:16:09;;;;;;;9.55;5.43;;;6.50;99.90;;;;;;5051246;28;20508;-67
2022/12/23 03:18:34;;;;;;;12.35;6.40;;;6.50;99.90;;;;;;5051569;28;20082;-67
2022/12/23 03:21:09;;;;;;;9.60;5.38;;;6.50;99.90;;;;;;5052078;28;20416;-67
2022/12/23 03:23:47;;;;;;;9.18;5.70;;;6.50;99.90;;;;;;5051256;28;20025;-67
2022/12/23 03:26:28;;;;;;;9.80;5.90;;;6.40;99.90;;;;;;5051599;28;20028;-67
2022/12/23 03:28:53;;;;;;;8.60;5.50;;;6.40;99.90;;;;;;5051422;28;20027;-67
2022/12/23 03:31:24;;;;;;;13.00;6.75;;;6.40;99.90;;;;;;5051730;28;20513;-66
2022/12/23 03:33:59;;;;;;;10.25;6.50;;;6.40;99.90;;;;;;5051528;28;20044;-67
2022/12/23 03:36:30;;;;;;;13.57;6.68;;;6.40;99.90;;;;;;5051743;28;20032;-66
2022/12/23 03:38:57;;;;;;;15.07;6.57;;;6.40;99.90;;;;;;5050817;28;20053;-67
2022/12/23 03:41:46;;;;;;;11.77;6.38;;;6.40;99.90;;;;;;5051407;28;20458;-66
2022/12/23 03:44:28;;;;;;;14.02;6.35;;;6.40;99.90;;;;;;5051698;28;20032;-67
2022/12/23 03:47:15;;;;;;;9.93;5.93;;;6.40;99.90;;;;;;5054814;28;20025;-67
2022/12/23 03:49:46;;;;;;;13.85;6.45;;;6.30;99.90;;;;;;5054847;28;20381;-67
2022/12/23 03:52:16;;;;;;;10.80;6.30;;;6.40;99.90;;;;;;5054947;28;20021;-66
2022/12/23 03:54:52;;;;;;;8.85;5.95;;;6.40;99.90;;;;;;5054760;28;20025;-67
2022/12/23 03:57:21;;;;;;;11.55;6.40;;;6.40;99.90;;;;;;5055073;28;20515;-67
2022/12/23 03:59:52;;;;;;;13.18;5.97;;;6.40;99.90;;;;;;5054636;28;20029;-67
2022/12/23 04:02:33;;;;;;;10.93;5.70;;;6.40;99.90;;;;;;5055044;28;20036;-67
2022/12/23 04:05:07;;;;;;;8.82;6.03;;;6.40;99.90;;;;;;5055353;28;20029;-67
2022/12/23 04:07:40;;;;;;;12.38;6.72;;;6.40;99.90;;;;;;5054644;28;20435;-67
2022/12/23 04:10:07;;;;;;;12.05;6.72;;;6.40;99.90;;;;;;5054613;28;20032;-66
2022/12/23 04:12:33;;;;;;;15.73;7.10;;;6.40;99.90;;;;;;5054419;28;20021;-68
2022/12/23 04:14:58;;;;;;;17.48;6.65;;;6.40;99.90;;;;;;5054277;28;20052;-67
2022/12/23 04:17:24;;;;;;;12.13;5.78;;;6.40;99.90;;;;;;5054539;28;20037;-67
2022/12/23 04:19:51;;;;;;;13.68;5.50;;;6.40;99.90;;;;;;5054275;28;20096;-65
2022/12/23 04:22:17;;;;;;;14.40;5.32;;;6.50;99.90;;;;;;5054249;28;20035;-65
2022/12/23 04:24:42;;;;;;;13.35;5.90;;;6.50;99.90;;;;;;5053799;28;20024;-66
2022/12/23 04:27:14;;;;;;;13.80;5.10;;;6.50;99.90;;;;;;5054459;28;20021;-66
2022/12/23 04:29:40;;;;;;;15.85;6.40;;;6.50;99.90;;;;;;5054108;28;20029;-65
2022/12/23 04:32:06;;;;;;;15.05;5.28;;;6.50;99.90;;;;;;5054282;28;20039;-66
2022/12/23 04:34:31;;;;;;;12.27;4.97;;;6.50;99.90;;;;;;5054358;28;20079;-66
2022/12/23 04:36:57;;;;;;;12.32;5.78;;;6.60;99.90;;;;;;5053889;28;20055;-66
2022/12/23 04:39:23;;;;;;;12.65;5.80;;;6.50;99.90;;;;;;5054289;28;20033;-66
2022/12/23 04:41:48;;;;;;;14.30;5.45;;;6.50;99.90;;;;;;5053732;28;20031;-67
2022/12/23 04:44:14;;;;;;;11.88;6.03;;;6.50;99.90;;;;;;5054148;28;20033;-66
2022/12/23 04:46:40;;;;;;;22.52;6.15;;;6.50;99.90;;;;;;5053654;28;20474;-66
2022/12/23 04:49:05;;;;;;;16.58;5.40;;;6.50;99.90;;;;;;5053311;28;20025;-66
2022/12/23 04:51:31;;;;;;;13.57;5.55;;;6.50;99.90;;;;;;5053944;28;20049;-65
2022/12/23 04:53:57;;;;;;;17.83;6.18;;;6.60;99.90;;;;;;5053407;28;20352;-65
2022/12/23 04:56:23;;;;;;;15.52;5.90;;;6.60;99.90;;;;;;5053530;28;20060;-66
2022/12/23 04:58:48;;;;;;;20.42;6.45;;;6.50;99.90;;;;;;5053470;28;20029;-65
2022/12/23 05:01:14;;;;;;;15.13;5.97;;;6.60;99.90;;;;;;5054217;28;20053;-66
2022/12/23 05:03:40;;;;;;;13.60;5.68;;;6.60;99.90;;;;;;5053440;28;20504;-67
2022/12/23 05:06:06;;;;;;;17.42;5.45;;;6.60;99.90;;;;;;5054012;28;20028;-67
2022/12/23 05:08:32;;;;;;;27.08;6.40;;;6.60;99.90;;;;;;5053733;28;20033;-66
2022/12/23 05:10:57;;;;;;;28.02;7.57;;;6.60;99.90;;;;;;5053595;28;20032;-67
2022/12/23 05:13:23;;;;;;;24.70;6.93;;;6.50;99.90;;;;;;5053900;28;20112;-66
2022/12/23 05:15:50;;;;;;;25.10;7.00;;;6.50;99.90;;;;;;5053169;28;20163;-66
2022/12/23 05:18:16;;;;;;;22.88;6.75;;;6.50;99.90;;;;;;5053496;28;20029;-67
2022/12/23 05:20:43;;;;;;;14.15;6.00;;;6.50;99.90;;;;;;5053055;28;20163;-67
2022/12/23 05:23:09;;;;;;;13.20;6.25;;;6.50;99.90;;;;;;5053547;28;20369;-67
2022/12/23 05:25:35;;;;;;;18.23;6.97;;;6.50;99.90;;;;;;5053575;28;20031;-67
2022/12/23 05:28:01;;;;;;;18.52;6.65;;;6.50;99.90;;;;;;5053030;28;20025;-67
2022/12/23 05:30:27;;;;;;;16.77;5.38;;;6.50;99.90;;;;;;5053319;28;20422;-67
2022/12/23 05:32:54;;;;;;;12.70;5.38;;;6.50;99.90;;;;;;5052833;28;20071;-67
2022/12/23 05:35:21;;;;;;;20.20;5.13;;;6.50;99.90;;;;;;5053062;28;20512;-67
2022/12/23 05:37:47;;;;;;;14.00;5.15;;;6.50;99.90;;;;;;5052910;28;20056;-67
2022/12/23 05:40:12;;;;;;;14.15;5.28;;;6.50;99.90;;;;;;5052876;28;20025;-67
2022/12/23 05:42:38;;;;;;;15.95;5.20;;;6.50;99.90;;;;;;5053334;28;20484;-67
2022/12/23 05:45:04;;;;;;;11.75;5.10;;;6.50;99.90;;;;;;5052309;28;20052;-67
2022/12/23 05:47:30;;;;;;;16.88;4.53;;;6.50;99.90;;;;;;5053155;28;20575;-65
2022/12/23 05:49:56;;;;;;;16.10;5.10;;;6.50;99.90;;;;;;5052611;28;20104;-67
2022/12/23 05:52:21;;;;;;;17.42;7.45;;;6.40;99.90;;;;;;5052759;28;20029;-66
2022/12/23 05:54:47;;;;;;;15.48;6.25;;;6.40;99.90;;;;;;5052464;28;20036;-66
2022/12/23 05:57:13;;;;;;;20.50;6.25;;;6.40;99.90;;;;;;5052685;28;20029;-66
2022/12/23 05:59:38;;;;;;;17.27;6.57;;;6.40;99.90;;;;;;5052454;28;20028;-66
2022/12/23 06:02:04;;;;;;;14.13;6.30;;;6.40;99.90;;;;;;5052314;28;20025;-66
2022/12/23 06:04:29;;;;;;;17.45;6.18;;;6.40;99.90;;;;;;5053004;28;20064;-66
2022/12/23 06:06:55;;;;;;;15.85;6.28;;;6.30;99.90;;;;;;5052185;28;20021;-66
2022/12/23 06:09:21;;;;;;;12.50;6.22;;;6.30;99.90;;;;;;5052291;28;20036;-66
2022/12/23 06:11:47;;;;;;;15.75;6.47;;;6.30;99.90;;;;;;5052167;28;20036;-66
2022/12/23 06:14:12;;;;;;;15.65;6.50;;;6.20;99.90;;;;;;5052554;28;20029;-66
2022/12/23 06:16:38;;;;;;;19.65;8.18;;;6.20;99.90;;;;;;5052251;28;20048;-66
2022/12/23 06:19:04;;;;;;;14.35;7.95;;;6.10;99.90;;;;;;5051891;28;20087;-66
2022/12/23 06:21:30;;;;;;;14.73;7.88;;;6.10;99.90;;;;;;5052549;28;20025;-66
2022/12/23 06:23:56;;;;;;;11.93;7.82;;;6.00;99.90;;;;;;5052035;28;20181;-66
2022/12/23 06:26:22;;;;;;;16.00;7.95;;;6.00;99.90;;;;;;5052267;28;20033;-66
2022/12/23 06:28:48;;;;;;;23.15;8.77;;;5.90;99.90;;;;;;5051976;28;20131;-66
2022/12/23 06:31:14;;;;;;;16.02;8.73;;;5.90;99.90;;;;;;5052030;28;20058;-66
2022/12/23 06:33:39;;;;;;;17.30;8.98;;;5.90;99.90;;;;;;5052352;28;20385;-66
2022/12/23 06:36:06;;;;;;;17.42;9.60;;;5.90;99.90;;;;;;5051861;28;20040;-66
2022/12/23 06:38:32;;;;;;;19.73;9.45;;;5.90;99.90;;;;;;5052164;28;20049;-66
2022/12/23 06:40:57;;;;;;;16.15;9.23;;;5.90;99.90;;;;;;5051840;28;20108;-66
2022/12/23 06:43:23;;;;;;;18.40;9.85;;;5.80;99.90;;;;;;5052108;28;20032;-66
2022/12/23 06:45:49;;;;;;;16.35;10.23;;;5.80;99.90;;;;;;5051929;28;20025;-67
2022/12/23 06:48:15;;;;;;;21.63;10.88;;;5.80;99.90;;;;;;5052059;28;20429;-67
2022/12/23 06:50:42;;;;;;;20.95;10.27;;;5.80;99.90;;;;;;5051751;28;20330;-66
2022/12/23 06:53:08;;;;;;;23.55;10.48;;;5.70;99.90;;;;;;5051752;28;20216;-66
2022/12/23 06:55:34;;;;;;;24.75;12.88;;;5.70;99.90;;;;;;5051684;28;20017;-66
2022/12/23 06:58:00;;;;;;;24.92;12.75;;;5.70;99.90;;;;;;5051631;28;20036;-67
2022/12/23 07:00:25;;;;;;;22.33;14.30;;;5.70;99.90;;;;;;5052379;28;20450;-67
2022/12/23 07:02:54;;;;;;;21.90;14.48;;;5.60;99.90;;;;;;5051653;28;20072;-67
2022/12/23 07:05:20;;;;;;;23.77;15.23;;;5.60;99.90;;;;;;5052122;28;20112;-67
2022/12/23 07:07:46;;;;;;;21.55;14.13;;;5.50;99.90;;;;;;5052091;28;20422;-67
2022/12/23 07:10:11;;;;;;;24.38;13.70;;;5.50;99.90;;;;;;5051491;28;20043;-66
2022/12/23 07:12:37;;;;;;;24.02;14.38;;;5.50;99.90;;;;;;5051646;28;20469;-66
2022/12/23 07:15:04;;;;;;;27.60;15.18;;;5.40;99.90;;;;;;5051689;28;20025;-67
2022/12/23 07:17:30;;;;;;;26.63;14.93;;;5.40;99.90;;;;;;5051678;28;20036;-67
2022/12/23 07:19:55;;;;;;;26.45;14.35;;;5.40;99.90;;;;;;5052386;28;20028;-67
2022/12/23 07:22:21;;;;;;;27.00;16.90;;;5.40;99.90;;;;;;5055843;28;20075;-67
2022/12/23 07:24:47;;;;;;;25.05;16.42;;;5.40;99.90;;;;;;5055985;28;20083;-67
2022/12/23 07:27:13;;;;;;;29.30;15.38;;;5.40;99.90;;;;;;5053946;28;20123;-66
2022/12/23 07:29:38;;;;;;;29.02;15.77;;;5.40;99.90;;;;;;5055344;28;20108;-67
2022/12/23 07:32:04;;;;;;;25.77;14.82;;;5.40;99.90;;;;;;5055271;28;20025;-67
2022/12/23 07:34:30;;;;;;;26.83;15.73;;;5.40;99.90;;;;;;5055257;28;20029;-67
2022/12/23 07:36:55;;;;;;;27.35;16.00;;;5.50;99.90;;;;;;5055259;28;20024;-67
2022/12/23 07:39:21;;;;;;;27.70;17.08;;;5.50;99.90;;;;;;5055507;28;20069;-65
2022/12/23 07:41:47;;;;;;;28.27;17.60;;;5.50;99.90;;;;;;5055456;28;20029;-66
2022/12/23 07:44:12;;;;;;;29.35;17.27;;;5.50;99.90;;;;;;5054693;28;20350;-66
2022/12/23 07:46:38;;;;;;;24.70;17.05;;;5.50;99.90;;;;;;5055201;28;20054;-66
2022/12/23 07:49:04;;;;;;;31.48;18.70;;;5.50;99.90;;;;;;5054598;28;20102;-67
2022/12/23 07:51:30;;;;;;;28.45;17.65;;;5.50;99.90;;;;;;5055194;28;20120;-67
2022/12/23 07:53:56;;;;;;;29.55;16.75;;;5.50;99.90;;;;;;5054362;28;20048;-67
2022/12/23 07:56:22;;;;;;;26.15;16.17;;;5.60;99.90;;;;;;5055092;28;20024;-66
2022/12/23 07:58:49;;;;;;;28.25;16.15;;;5.50;99.90;;;;;;5054939;28;20040;-67
2022/12/23 08:01:15;;;;;;;24.90;16.05;;;5.50;99.90;;;;;;5054571;28;20060;-66
2022/12/23 08:03:40;;;;;;;26.02;16.08;;;5.60;99.90;;;;;;5053493;28;20025;-67
2022/12/23 08:06:08;;;;;;;23.88;15.07;;;5.60;99.90;;;;;;5054310;28;20116;-66
2022/12/23 08:08:34;;;;;;;24.48;15.25;;;5.60;99.90;;;;;;5054546;28;20040;-65
2022/12/23 08:11:03;;;;;;;23.80;16.05;;;5.60;99.90;;;;;;5054062;28;20331;-67
2022/12/23 08:13:30;;;;;;;29.95;17.10;;;5.60;99.90;;;;;;5054706;28;20033;-65
2022/12/23 08:15:58;;;;;;;30.45;17.08;;;5.60;99.90;;;;;;5052940;28;20083;-67
2022/12/23 08:18:25;;;;;;;23.65;15.90;;;5.60;99.90;;;;;;5054469;28;20106;-66
2022/12/23 08:20:54;;;;;;;26.38;16.92;;;5.60;99.90;;;;;;5054507;28;20094;-67
2022/12/23 08:23:20;;;;;;;29.45;16.65;;;5.60;99.90;;;;;;5054181;28;20021;-66
2022/12/23 08:25:46;;;;;;;23.15;16.35;;;5.60;99.90;;;;;;5054504;28;20485;-67
2022/12/23 08:28:12;;;;;;;24.85;15.85;;;5.60;99.90;;;;;;5054260;28;20060;-66
2022/12/23 08:30:37;;;;;;;27.60;16.60;;;5.60;99.90;;;;;;5054026;28;20029;-66
2022/12/23 08:33:03;;;;;;;30.15;16.58;;;5.60;99.90;;;;;;5053563;28;20029;-66
2022/12/23 08:35:29;;;;;;;23.90;16.38;;;5.60;99.90;;;;;;5054543;28;20445;-66
2022/12/23 08:37:55;;;;;;;25.38;15.95;;;5.60;99.90;;;;;;5053585;28;20056;-66
2022/12/23 08:40:20;;;;;;;23.23;16.10;;;5.60;99.90;;;;;;5054347;28;20451;-66
2022/12/23 08:42:46;;;;;;;26.13;16.33;;;5.60;99.90;;;;;;5053660;28;20355;-66
2022/12/23 08:45:12;;;;;;;31.73;15.20;;;5.70;99.90;;;;;;5053673;28;20029;-66
2022/12/23 08:47:38;;;;;;;23.40;14.68;;;5.70;99.90;;;;;;5053987;28;20033;-65
2022/12/23 08:50:04;;;;;;;24.60;15.50;;;5.70;99.90;;;;;;5053797;28;20021;-66
2022/12/23 08:52:29;;;;;;;30.17;19.00;;;5.80;99.90;;;;;;5053766;28;20048;-66
2022/12/23 08:54:55;;;;;;;25.52;15.10;;;5.80;99.90;;;;;;5052949;28;20103;-68
2022/12/23 08:57:20;;;;;;;26.55;17.08;;;5.80;99.90;;;;;;5053881;28;20025;-66
2022/12/23 08:59:47;;;;;;;25.02;15.70;;;5.80;99.90;;;;;;5053769;28;20017;-66
2022/12/23 09:02:12;;;;;;;24.98;16.63;;;5.90;99.90;;;;;;5053256;28;20112;-66
2022/12/23 09:04:38;;;;;;;23.73;16.50;;;5.90;99.90;;;;;;5053483;28;20053;-65
2022/12/23 09:07:04;;;;;;;25.58;16.02;;;5.90;99.90;;;;;;5053271;28;20029;-66
2022/12/23 09:09:30;;;;;;;31.98;19.77;;;5.90;99.90;;;;;;5053850;28;20025;-66
2022/12/23 09:11:56;;;;;;;29.33;18.33;;;5.90;99.90;;;;;;5053525;28;20025;-68
2022/12/23 09:14:21;;;;;;;25.77;16.42;;;5.90;99.90;;;;;;5053503;28;20067;-67
2022/12/23 09:16:50;;;;;;;25.02;16.38;;;5.90;99.90;;;;;;5053468;28;20462;-65
2022/12/23 09:19:16;;;;;;;28.23;17.10;;;5.80;99.90;;;;;;5052860;28;20052;-65
2022/12/23 09:21:41;;;;;;;24.15;15.82;;;5.80;99.90;;;;;;5053452;28;20029;-66
2022/12/23 09:24:07;;;;;;;25.58;16.52;;;5.80;99.90;;;;;;5053325;28;20476;-66
2022/12/23 09:26:33;;;;;;;25.00;17.00;;;5.80;99.90;;;;;;5053373;28;20026;-66
2022/12/23 09:28:59;;;;;;;29.33;16.27;;;5.90;99.90;;;;;;5052687;28;20056;-67
2022/12/23 09:31:25;;;;;;;28.15;19.02;;;5.90;99.90;;;;;;5053247;28;20021;-66
2022/12/23 09:33:52;;;;;;;24.80;17.27;;;6.00;99.90;;;;;;5053209;28;20450;-66
2022/12/23 09:36:19;;;;;;;26.23;17.55;;;5.90;99.90;;;;;;5052627;28;20108;-66
2022/12/23 09:38:45;;;;;;;24.95;16.63;;;5.90;99.90;;;;;;5052445;28;20048;-66
2022/12/23 09:41:47;;;;;;;24.55;17.55;;;5.80;99.90;;;;;;5052253;28;20079;-66
2022/12/23 09:44:25;;;;;;;26.30;17.85;;;5.90;99.90;;;;;;5051682;28;20390;-66
2022/12/23 09:46:55;;;;;;;25.70;18.55;;;5.90;99.90;;;;;;5052892;28;20036;-66
2022/12/23 09:49:22;;;;;;;28.23;18.55;;;5.90;99.90;;;;;;5052217;28;20033;-66
2022/12/23 09:51:52;;;;;;;27.27;17.80;;;5.90;99.90;;;;;;5052626;28;20056;-66
2022/12/23 09:54:24;;;;;;;26.42;17.70;;;5.80;99.90;;;;;;5052402;28;20446;-66
2022/12/23 09:56:54;;;;;;;27.25;17.83;;;5.80;99.90;;;;;;5052887;28;20468;-67
2022/12/23 09:59:56;;;;;;;28.67;18.88;;;5.70;99.90;;;;;;5052005;28;20126;-65
2022/12/23 10:02:46;;;;;;;26.20;18.02;;;5.70;99.90;;;;;;5052096;28;20168;-66
2022/12/23 10:05:38;;;;;;;31.45;19.65;;;5.60;99.90;;;;;;5052064;28;20066;-66
2022/12/23 10:08:25;;;;;;;30.02;18.88;;;5.60;99.90;;;;;;5051443;28;20071;-66
2022/12/23 10:11:00;;;;;;;28.88;18.50;;;5.70;99.90;;;;;;5052464;28;20021;-66
2022/12/23 10:13:40;;;;;;;28.05;18.75;;;5.70;99.90;;;;;;5052671;28;20035;-65
2022/12/23 10:16:17;;;;;;;31.13;20.10;;;5.80;99.90;;;;;;5054182;28;20119;-65
2022/12/23 10:18:56;;;;;;;26.90;18.13;;;5.90;99.90;;;;;;5053056;28;20040;-67
2022/12/23 10:21:39;;;;;;;27.77;18.38;;;6.00;99.90;;;;;;5051931;28;20029;-68
2022/12/23 10:24:17;;;;;;;26.08;17.17;;;6.00;99.90;;;;;;5052212;28;20155;-67
2022/12/23 10:27:31;;;;;;;24.38;17.17;;;6.10;99.90;;;;;;5052589;28;20033;-67
2022/12/23 10:30:11;;;;;;;29.02;18.15;;;6.10;99.90;;;;;;5042264;28;20374;-67
2022/12/23 10:32:46;;;;;;;24.20;15.60;;;6.20;99.90;;;;;;5052482;28;20040;-67
2022/12/23 10:35:18;;;;;;;25.88;17.58;;;6.30;99.90;;;;;;5051939;28;20032;-67
2022/12/23 10:37:49;;;;;;;;;;;6.30;99.90;;;;;;5051750;28;20086;-67
2022/12/23 10:40:20;;;;;;;25.20;16.33;;;6.30;99.90;;;;;;5051685;28;20313;-67
2022/12/23 10:43:07;;;;;;;24.00;16.10;;;6.30;99.90;;;;;;5052466;28;20025;-67
2022/12/23 10:45:54;;;;;;;25.48;16.42;;;6.40;99.90;;;;;;5052216;28;20020;-67
2022/12/23 10:48:39;;;;;;;23.92;16.20;;;6.30;99.90;;;;;;5051674;28;20032;-67
2022/12/23 10:51:18;;;;;;;21.02;15.30;;;6.30;99.90;;;;;;5052038;28;20029;-68
2022/12/23 10:54:01;;;;;;;29.13;20.13;;;6.30;99.90;;;;;;5052783;28;20024;-67
2022/12/23 10:56:29;;;;;;;22.38;16.30;;;6.30;99.90;;;;;;5055369;28;20032;-67
2022/12/23 10:58:58;;;;;;;21.45;15.20;;;6.40;99.90;;;;;;5056110;28;20106;-66
2022/12/23 11:01:24;;;;;;;25.83;17.30;;;6.40;99.90;;;;;;5055642;28;20051;-67
2022/12/23 11:04:13;;;;;;;26.48;16.70;;;6.50;99.90;;;;;;5056101;28;20416;-67
2022/12/23 11:06:48;;;;;;;25.10;15.65;;;6.50;99.90;;;;;;5056066;28;20087;-67
2022/12/23 11:09:20;;;;;;;26.63;17.00;;;6.50;99.90;;;;;;5055312;28;20417;-67
2022/12/23 11:12:01;;;;;;;26.83;16.48;;;6.50;99.90;;;;;;5055768;28;20146;-67
2022/12/23 11:14:37;;;;;;;25.95;16.67;;;6.60;99.90;;;;;;5055107;28;20025;-66
2022/12/23 11:17:04;;;;;;;26.65;16.40;;;6.60;99.90;;;;;;5055820;28;20473;-67
2022/12/23 11:19:30;;;;;;;22.60;16.33;;;6.60;99.90;;;;;;5055673;28;20029;-66
2022/12/23 11:21:58;;;;;;;25.88;16.73;;;6.70;99.90;;;;;;5055453;28;20075;-66
2022/12/23 11:24:26;;;;;;;27.90;16.58;;;6.70;99.90;;;;;;5055337;28;20029;-66
2022/12/23 11:27:10;;;;;;;29.00;17.80;;;6.70;99.90;;;;;;5055466;28;20021;-67
2022/12/23 11:29:53;;;;;;;28.20;17.20;;;6.80;99.90;;;;;;5055739;28;20098;-67
2022/12/23 11:32:25;;;;;;;28.20;18.00;;;6.80;99.90;;;;;;5055280;28;20020;-67
2022/12/23 11:34:52;;;;;;;27.88;18.00;;;6.90;99.90;;;;;;5055405;28;20032;-66
2022/12/23 11:37:33;;;;;;;29.08;18.42;;;6.90;99.90;;;;;;5054789;28;20429;-65
2022/12/23 11:39:59;;;;;;;28.30;18.30;;;6.90;99.90;;;;;;5054067;28;20028;-66
2022/12/23 11:42:29;;;;;;;28.25;18.65;;;7.00;99.90;;;;;;5054805;28;20029;-67
2022/12/23 11:44:57;;;;;;;28.63;17.70;;;7.00;99.90;;;;;;5055583;28;20124;-66
2022/12/23 11:47:27;;;;;;;26.42;17.90;;;6.90;99.90;;;;;;5054605;28;20017;-67
2022/12/23 11:50:00;;;;;;;29.80;17.80;;;6.90;99.90;;;;;;5055117;28;20064;-66
2022/12/23 11:52:28;;;;;;;26.58;17.88;;;7.00;99.90;;;;;;5054302;28;20494;-67
2022/12/23 11:54:56;;;;;;;28.10;18.58;;;7.00;99.90;;;;;;5054867;28;20025;-66
2022/12/23 11:57:42;;;;;;;27.95;18.15;;;7.10;99.90;;;;;;5054554;28;20100;-67
2022/12/23 12:00:19;;;;;;;26.65;18.20;;;7.20;99.90;;;;;;5054605;28;20116;-66
2022/12/23 12:02:51;;;;;;;26.25;17.58;;;7.30;99.90;;;;;;5054821;28;20078;-67
2022/12/23 12:05:21;;;;;;;25.67;17.67;;;7.40;99.90;;;;;;5053903;28;20025;-67
2022/12/23 12:07:48;;;;;;;29.65;18.48;;;7.50;99.90;;;;;;5054884;28;20029;-66
2022/12/23 12:10:25;;;;;;;30.42;19.38;;;7.60;99.90;;;;;;5054537;28;20087;-67
2022/12/23 12:12:56;;;;;;;28.42;18.75;;;7.70;99.90;;;;;;5054775;28;20036;-67
2022/12/23 12:15:54;;;;;;;27.70;17.60;;;7.80;99.90;;;;;;5054295;28;20434;-67
2022/12/23 12:18:21;;;;;;;31.13;20.05;;;8.00;99.90;;;;;;5044973;28;20177;-68
2022/12/23 12:21:00;;;;;;;27.73;17.35;;;8.20;99.90;;;;;;5054671;28;20136;-67
2022/12/23 12:23:28;;;;;;;26.40;16.85;;;8.30;99.90;;;;;;5053820;28;20425;-66
2022/12/23 12:26:00;;;;;;;26.95;16.60;;;8.40;99.90;;;;;;5054200;28;20104;-67
2022/12/23 12:28:31;;;;;;;;;;;8.60;99.90;;;;;;5054427;28;20120;-67
2022/12/23 12:31:15;;;;;;;;;;;8.60;99.90;;;;;;5054742;28;19909;-67
2022/12/23 12:34:01;;;;;;;26.35;15.85;;;8.70;99.90;;;;;;5054348;28;20341;-66
2022/12/23 12:36:26;;;;;;;23.67;15.48;;;8.80;99.90;;;;;;5053482;28;20063;-67
2022/12/23 12:38:54;;;;;;;24.25;16.35;;;8.80;99.90;;;;;;5054221;28;20080;-67
2022/12/23 12:41:41;;;;;;;23.63;15.43;;;8.90;99.90;;;;;;5053836;28;20052;-67
2022/12/23 12:44:26;;;;;;;24.77;16.88;;;8.90;99.90;;;;;;5052889;28;20048;-67
2022/12/23 12:47:02;;;;;;;24.55;15.30;;;9.00;99.90;;;;;;5054163;28;20032;-67
2022/12/23 12:49:37;;;;;;;22.50;15.23;;;9.00;99.90;;;;;;5053684;28;20091;-67
2022/12/23 12:52:18;;;;;;;23.25;15.18;;;9.10;99.90;;;;;;5053898;28;20029;-67
2022/12/23 12:54:44;;;;;;;;;;;9.10;99.90;;;;;;5054443;28;20033;-67
2022/12/23 12:57:15;;;;;;;25.00;15.82;;;9.10;99.90;;;;;;5053880;28;19958;-67
2022/12/23 12:59:42;;;;;;;21.05;14.38;;;9.20;99.90;;;;;;5054028;28;20029;-66
2022/12/23 13:02:26;;;;;;;22.75;14.60;;;9.30;99.90;;;;;;5053629;28;20033;-66
2022/12/23 13:05:13;;;;;;;23.90;14.55;;;9.40;99.90;;;;;;5053941;28;20041;-66
2022/12/23 13:08:22;;;;;;;27.08;16.15;;;9.40;99.90;;;;;;5053624;28;20112;-67
2022/12/23 13:11:03;;;;;;;23.48;15.90;;;9.40;99.90;;;;;;5053150;28;20029;-67
2022/12/23 13:13:40;;;;;;;25.25;16.58;;;9.50;99.90;;;;;;5053099;28;20159;-67
2022/12/23 13:17:03;;;;;;;24.85;15.65;;;9.40;99.90;;;;;;5053416;28;20033;-67
2022/12/23 13:20:07;;;;;;;24.17;15.80;;;9.40;99.90;;;;;;5030083;28;20037;-67
2022/12/23 13:22:33;;;;;;;26.85;16.70;;;9.40;99.90;;;;;;5030008;28;20073;-65
2022/12/23 13:25:08;;;;;;;26.33;16.67;;;9.30;99.90;;;;;;5030931;28;20041;-65
2022/12/23 13:27:56;;;;;;;26.88;17.05;;;9.30;99.90;;;;;;5030521;28;20843;-66
2022/12/23 13:30:26;;;;;;;25.45;16.73;;;9.30;99.90;;;;;;5030351;28;20117;-66
2022/12/23 13:33:16;;;;;;;26.67;16.92;;;9.20;99.90;;;;;;5014876;28;20033;-65